sensor_id;sensor_type;location;lat;lon;timestamp;P1;durP1;ratioP1;P2;durP2;ratioP2
15614;SDS011;7907;51.368;6.730;2022-12-17T00:01:13;11.63;;;6.55;;
15614;SDS011;7907;51.368;6.730;2022-12-17T00:03:57;20.20;;;8.95;;
15614;SDS011;7907;51.368;6.730;2022-12-17T00:06:42;15.63;;;7.20;;
15614;SDS011;7907;51.368;6.730;2022-12-17T00:09:28;15.38;;;6.03;;
15614;SDS011;7907;51.368;6.730;2022-12-17T00:12:12;20.80;;;6.60;;
15614;SDS011;7907;51.368;6.730;2022-12-17T00:14:56;17.10;;;7.63;;
15614;SDS011;7907;51.368;6.730;2022-12-17T00:17:40;16.03;;;7.50;;
15614;SDS011;7907;51.368;6.730;2022-12-17T00:20:24;12.95;;;6.88;;
15614;SDS011;7907;51.368;6.730;2022-12-17T00:23:09;14.85;;;6.82;;
15614;SDS011;7907;51.368;6.730;2022-12-17T00:25:55;14.82;;;7.22;;
15614;SDS011;7907;51.368;6.730;2022-12-17T00:28:40;18.30;;;6.95;;
15614;SDS011;7907;51.368;6.730;2022-12-17T00:31:25;14.35;;;6.88;;
15614;SDS011;7907;51.368;6.730;2022-12-17T00:34:10;16.45;;;6.10;;
15614;SDS011;7907;51.368;6.730;2022-12-17T00:36:55;14.40;;;7.33;;
15614;SDS011;7907;51.368;6.730;2022-12-17T00:39:40;11.50;;;6.13;;
15614;SDS011;7907;51.368;6.730;2022-12-17T00:42:26;12.00;;;6.75;;
15614;SDS011;7907;51.368;6.730;2022-12-17T00:45:11;19.40;;;7.40;;
15614;SDS011;7907;51.368;6.730;2022-12-17T00:47:55;14.27;;;7.43;;
15614;SDS011;7907;51.368;6.730;2022-12-17T00:50:40;15.65;;;7.32;;
15614;SDS011;7907;51.368;6.730;2022-12-17T00:53:24;12.40;;;6.88;;
15614;SDS011;7907;51.368;6.730;2022-12-17T00:56:08;13.63;;;6.70;;
15614;SDS011;7907;51.368;6.730;2022-12-17T00:58:54;13.05;;;6.57;;
15614;SDS011;7907;51.368;6.730;2022-12-17T01:01:39;21.67;;;7.78;;
15614;SDS011;7907;51.368;6.730;2022-12-17T01:04:23;13.95;;;6.68;;
15614;SDS011;7907;51.368;6.730;2022-12-17T01:07:07;13.43;;;6.78;;
15614;SDS011;7907;51.368;6.730;2022-12-17T01:09:52;14.80;;;6.28;;
15614;SDS011;7907;51.368;6.730;2022-12-17T01:12:36;14.30;;;6.93;;
15614;SDS011;7907;51.368;6.730;2022-12-17T01:15:21;13.77;;;7.03;;
15614;SDS011;7907;51.368;6.730;2022-12-17T01:18:06;12.10;;;5.95;;
15614;SDS011;7907;51.368;6.730;2022-12-17T01:20:54;13.75;;;7.70;;
15614;SDS011;7907;51.368;6.730;2022-12-17T01:23:39;28.63;;;8.03;;
15614;SDS011;7907;51.368;6.730;2022-12-17T01:26:24;12.07;;;5.75;;
15614;SDS011;7907;51.368;6.730;2022-12-17T01:29:08;16.30;;;5.28;;
15614;SDS011;7907;51.368;6.730;2022-12-17T01:31:54;14.25;;;6.57;;
15614;SDS011;7907;51.368;6.730;2022-12-17T01:34:38;11.80;;;6.63;;
15614;SDS011;7907;51.368;6.730;2022-12-17T01:37:22;11.47;;;5.73;;
15614;SDS011;7907;51.368;6.730;2022-12-17T01:40:08;11.95;;;6.90;;
15614;SDS011;7907;51.368;6.730;2022-12-17T01:42:53;17.60;;;5.85;;
15614;SDS011;7907;51.368;6.730;2022-12-17T01:45:38;11.35;;;6.43;;
15614;SDS011;7907;51.368;6.730;2022-12-17T01:48:27;11.60;;;5.65;;
15614;SDS011;7907;51.368;6.730;2022-12-17T01:51:14;15.93;;;5.93;;
15614;SDS011;7907;51.368;6.730;2022-12-17T01:54:12;13.67;;;6.90;;
15614;SDS011;7907;51.368;6.730;2022-12-17T01:56:57;10.73;;;5.85;;
15614;SDS011;7907;51.368;6.730;2022-12-17T01:59:44;9.98;;;6.05;;
15614;SDS011;7907;51.368;6.730;2022-12-17T02:02:32;10.70;;;6.00;;
15614;SDS011;7907;51.368;6.730;2022-12-17T02:05:19;10.47;;;6.07;;
15614;SDS011;7907;51.368;6.730;2022-12-17T02:08:09;9.23;;;6.00;;
15614;SDS011;7907;51.368;6.730;2022-12-17T02:11:02;12.00;;;4.80;;
15614;SDS011;7907;51.368;6.730;2022-12-17T02:13:54;10.70;;;5.25;;
15614;SDS011;7907;51.368;6.730;2022-12-17T02:16:47;9.65;;;4.95;;
15614;SDS011;7907;51.368;6.730;2022-12-17T02:19:39;8.02;;;4.85;;
15614;SDS011;7907;51.368;6.730;2022-12-17T02:22:38;8.85;;;5.43;;
15614;SDS011;7907;51.368;6.730;2022-12-17T02:25:31;6.47;;;5.20;;
15614;SDS011;7907;51.368;6.730;2022-12-17T02:28:23;10.55;;;6.80;;
15614;SDS011;7907;51.368;6.730;2022-12-17T02:31:09;9.82;;;4.95;;
15614;SDS011;7907;51.368;6.730;2022-12-17T02:33:55;11.68;;;6.10;;
15614;SDS011;7907;51.368;6.730;2022-12-17T02:36:40;10.63;;;6.32;;
15614;SDS011;7907;51.368;6.730;2022-12-17T02:39:25;8.30;;;4.60;;
15614;SDS011;7907;51.368;6.730;2022-12-17T02:42:06;11.82;;;5.05;;
15614;SDS011;7907;51.368;6.730;2022-12-17T02:44:52;15.77;;;6.05;;
15614;SDS011;7907;51.368;6.730;2022-12-17T02:47:37;11.35;;;5.60;;
15614;SDS011;7907;51.368;6.730;2022-12-17T02:50:22;10.98;;;6.00;;
15614;SDS011;7907;51.368;6.730;2022-12-17T02:53:07;10.63;;;5.77;;
15614;SDS011;7907;51.368;6.730;2022-12-17T02:55:51;18.58;;;6.15;;
15614;SDS011;7907;51.368;6.730;2022-12-17T02:58:35;9.38;;;4.93;;
15614;SDS011;7907;51.368;6.730;2022-12-17T03:01:21;10.20;;;6.38;;
15614;SDS011;7907;51.368;6.730;2022-12-17T03:04:06;10.25;;;5.35;;
15614;SDS011;7907;51.368;6.730;2022-12-17T03:06:50;11.05;;;5.13;;
15614;SDS011;7907;51.368;6.730;2022-12-17T03:09:34;9.27;;;5.03;;
15614;SDS011;7907;51.368;6.730;2022-12-17T03:12:19;9.15;;;5.25;;
15614;SDS011;7907;51.368;6.730;2022-12-17T03:15:03;9.52;;;4.47;;
15614;SDS011;7907;51.368;6.730;2022-12-17T03:17:46;11.25;;;4.47;;
15614;SDS011;7907;51.368;6.730;2022-12-17T03:20:31;10.73;;;5.35;;
15614;SDS011;7907;51.368;6.730;2022-12-17T03:23:15;11.57;;;5.28;;
15614;SDS011;7907;51.368;6.730;2022-12-17T03:26:01;8.18;;;5.75;;
15614;SDS011;7907;51.368;6.730;2022-12-17T03:28:47;7.43;;;4.97;;
15614;SDS011;7907;51.368;6.730;2022-12-17T03:31:31;8.50;;;5.93;;
15614;SDS011;7907;51.368;6.730;2022-12-17T03:34:22;7.47;;;3.78;;
15614;SDS011;7907;51.368;6.730;2022-12-17T03:37:07;18.23;;;5.78;;
15614;SDS011;7907;51.368;6.730;2022-12-17T03:39:51;11.27;;;5.85;;
15614;SDS011;7907;51.368;6.730;2022-12-17T03:42:35;13.98;;;4.97;;
15614;SDS011;7907;51.368;6.730;2022-12-17T03:45:20;9.87;;;4.67;;
15614;SDS011;7907;51.368;6.730;2022-12-17T03:48:05;11.10;;;4.70;;
15614;SDS011;7907;51.368;6.730;2022-12-17T03:50:54;10.10;;;5.47;;
15614;SDS011;7907;51.368;6.730;2022-12-17T03:53:39;9.43;;;4.27;;
15614;SDS011;7907;51.368;6.730;2022-12-17T03:56:24;7.25;;;4.75;;
15614;SDS011;7907;51.368;6.730;2022-12-17T03:59:09;8.57;;;4.80;;
15614;SDS011;7907;51.368;6.730;2022-12-17T04:01:53;17.17;;;6.00;;
15614;SDS011;7907;51.368;6.730;2022-12-17T04:04:38;15.75;;;5.38;;
15614;SDS011;7907;51.368;6.730;2022-12-17T04:07:24;9.65;;;4.18;;
15614;SDS011;7907;51.368;6.730;2022-12-17T04:10:23;8.43;;;4.85;;
15614;SDS011;7907;51.368;6.730;2022-12-17T04:13:08;4.80;;;3.90;;
15614;SDS011;7907;51.368;6.730;2022-12-17T04:15:54;4.60;;;3.03;;
15614;SDS011;7907;51.368;6.730;2022-12-17T04:18:38;6.88;;;4.80;;
15614;SDS011;7907;51.368;6.730;2022-12-17T04:21:23;6.50;;;3.88;;
15614;SDS011;7907;51.368;6.730;2022-12-17T04:24:09;8.63;;;4.15;;
15614;SDS011;7907;51.368;6.730;2022-12-17T04:26:53;9.50;;;4.47;;
15614;SDS011;7907;51.368;6.730;2022-12-17T04:29:37;11.25;;;4.57;;
15614;SDS011;7907;51.368;6.730;2022-12-17T04:32:22;8.50;;;4.25;;
15614;SDS011;7907;51.368;6.730;2022-12-17T04:35:06;5.22;;;4.40;;
15614;SDS011;7907;51.368;6.730;2022-12-17T04:37:51;8.98;;;4.07;;
15614;SDS011;7907;51.368;6.730;2022-12-17T04:40:37;8.07;;;2.97;;
15614;SDS011;7907;51.368;6.730;2022-12-17T04:43:21;13.47;;;5.27;;
15614;SDS011;7907;51.368;6.730;2022-12-17T04:46:06;8.30;;;4.82;;
15614;SDS011;7907;51.368;6.730;2022-12-17T04:48:50;13.13;;;4.75;;
15614;SDS011;7907;51.368;6.730;2022-12-17T04:51:35;7.97;;;4.43;;
15614;SDS011;7907;51.368;6.730;2022-12-17T04:54:16;6.05;;;3.47;;
15614;SDS011;7907;51.368;6.730;2022-12-17T04:57:02;5.60;;;3.15;;
15614;SDS011;7907;51.368;6.730;2022-12-17T04:59:46;9.68;;;4.43;;
15614;SDS011;7907;51.368;6.730;2022-12-17T05:02:31;9.40;;;3.90;;
15614;SDS011;7907;51.368;6.730;2022-12-17T05:05:15;7.18;;;3.75;;
15614;SDS011;7907;51.368;6.730;2022-12-17T05:08:00;8.73;;;5.00;;
15614;SDS011;7907;51.368;6.730;2022-12-17T05:10:44;9.10;;;3.87;;
15614;SDS011;7907;51.368;6.730;2022-12-17T05:13:29;9.38;;;4.45;;
15614;SDS011;7907;51.368;6.730;2022-12-17T05:16:13;8.80;;;3.55;;
15614;SDS011;7907;51.368;6.730;2022-12-17T05:18:58;8.27;;;3.70;;
15614;SDS011;7907;51.368;6.730;2022-12-17T05:21:42;9.75;;;3.95;;
15614;SDS011;7907;51.368;6.730;2022-12-17T05:24:27;8.68;;;4.80;;
15614;SDS011;7907;51.368;6.730;2022-12-17T05:27:11;12.05;;;4.57;;
15614;SDS011;7907;51.368;6.730;2022-12-17T05:29:56;9.32;;;5.25;;
15614;SDS011;7907;51.368;6.730;2022-12-17T05:32:41;10.07;;;5.20;;
15614;SDS011;7907;51.368;6.730;2022-12-17T05:35:25;4.88;;;3.38;;
15614;SDS011;7907;51.368;6.730;2022-12-17T05:38:09;6.45;;;3.78;;
15614;SDS011;7907;51.368;6.730;2022-12-17T05:40:55;7.40;;;3.63;;
15614;SDS011;7907;51.368;6.730;2022-12-17T05:43:40;6.03;;;3.83;;
15614;SDS011;7907;51.368;6.730;2022-12-17T05:46:26;5.32;;;4.00;;
15614;SDS011;7907;51.368;6.730;2022-12-17T05:49:11;15.00;;;4.88;;
15614;SDS011;7907;51.368;6.730;2022-12-17T05:51:57;3.75;;;2.00;;
15614;SDS011;7907;51.368;6.730;2022-12-17T05:54:42;5.80;;;3.85;;
15614;SDS011;7907;51.368;6.730;2022-12-17T05:57:26;6.15;;;3.63;;
15614;SDS011;7907;51.368;6.730;2022-12-17T06:00:11;10.33;;;4.17;;
15614;SDS011;7907;51.368;6.730;2022-12-17T06:02:58;8.80;;;4.07;;
15614;SDS011;7907;51.368;6.730;2022-12-17T06:05:44;7.20;;;4.40;;
15614;SDS011;7907;51.368;6.730;2022-12-17T06:08:28;5.75;;;4.05;;
15614;SDS011;7907;51.368;6.730;2022-12-17T06:11:12;5.60;;;3.90;;
15614;SDS011;7907;51.368;6.730;2022-12-17T06:13:57;6.70;;;4.45;;
15614;SDS011;7907;51.368;6.730;2022-12-17T06:16:41;10.27;;;4.55;;
15614;SDS011;7907;51.368;6.730;2022-12-17T06:19:27;8.82;;;4.53;;
15614;SDS011;7907;51.368;6.730;2022-12-17T06:22:11;9.35;;;4.47;;
15614;SDS011;7907;51.368;6.730;2022-12-17T06:24:55;7.65;;;4.13;;
15614;SDS011;7907;51.368;6.730;2022-12-17T06:27:39;10.53;;;3.73;;
15614;SDS011;7907;51.368;6.730;2022-12-17T06:30:24;7.32;;;4.20;;
15614;SDS011;7907;51.368;6.730;2022-12-17T06:33:09;7.75;;;3.95;;
15614;SDS011;7907;51.368;6.730;2022-12-17T06:35:55;7.68;;;3.92;;
15614;SDS011;7907;51.368;6.730;2022-12-17T06:38:41;9.18;;;4.90;;
15614;SDS011;7907;51.368;6.730;2022-12-17T06:41:25;6.15;;;4.30;;
15614;SDS011;7907;51.368;6.730;2022-12-17T06:44:10;11.05;;;3.97;;
15614;SDS011;7907;51.368;6.730;2022-12-17T06:47:06;9.80;;;4.45;;
15614;SDS011;7907;51.368;6.730;2022-12-17T06:49:46;6.55;;;3.67;;
15614;SDS011;7907;51.368;6.730;2022-12-17T06:52:32;6.07;;;3.72;;
15614;SDS011;7907;51.368;6.730;2022-12-17T06:55:16;5.55;;;3.65;;
15614;SDS011;7907;51.368;6.730;2022-12-17T06:58:01;7.85;;;3.50;;
15614;SDS011;7907;51.368;6.730;2022-12-17T07:00:46;5.80;;;4.83;;
15614;SDS011;7907;51.368;6.730;2022-12-17T07:03:30;10.45;;;4.32;;
15614;SDS011;7907;51.368;6.730;2022-12-17T07:06:14;6.57;;;4.53;;
15614;SDS011;7907;51.368;6.730;2022-12-17T07:09:00;4.63;;;4.20;;
15614;SDS011;7907;51.368;6.730;2022-12-17T07:11:48;8.40;;;4.60;;
15614;SDS011;7907;51.368;6.730;2022-12-17T07:14:33;7.25;;;5.22;;
15614;SDS011;7907;51.368;6.730;2022-12-17T07:17:17;7.20;;;3.72;;
15614;SDS011;7907;51.368;6.730;2022-12-17T07:20:02;7.30;;;4.38;;
15614;SDS011;7907;51.368;6.730;2022-12-17T07:22:47;10.10;;;4.45;;
15614;SDS011;7907;51.368;6.730;2022-12-17T07:25:33;8.60;;;4.20;;
15614;SDS011;7907;51.368;6.730;2022-12-17T07:28:17;7.50;;;4.25;;
15614;SDS011;7907;51.368;6.730;2022-12-17T07:30:58;7.18;;;4.38;;
15614;SDS011;7907;51.368;6.730;2022-12-17T07:33:43;11.30;;;5.57;;
15614;SDS011;7907;51.368;6.730;2022-12-17T07:36:27;5.80;;;4.13;;
15614;SDS011;7907;51.368;6.730;2022-12-17T07:39:12;9.98;;;5.43;;
15614;SDS011;7907;51.368;6.730;2022-12-17T07:41:57;6.45;;;4.50;;
15614;SDS011;7907;51.368;6.730;2022-12-17T07:44:42;7.15;;;4.10;;
15614;SDS011;7907;51.368;6.730;2022-12-17T07:47:26;10.63;;;4.85;;
15614;SDS011;7907;51.368;6.730;2022-12-17T07:50:10;11.48;;;4.57;;
15614;SDS011;7907;51.368;6.730;2022-12-17T07:52:58;7.80;;;3.75;;
15614;SDS011;7907;51.368;6.730;2022-12-17T07:55:44;14.30;;;3.78;;
15614;SDS011;7907;51.368;6.730;2022-12-17T07:58:29;7.43;;;3.92;;
15614;SDS011;7907;51.368;6.730;2022-12-17T08:01:14;12.32;;;4.57;;
15614;SDS011;7907;51.368;6.730;2022-12-17T08:03:58;7.60;;;3.83;;
15614;SDS011;7907;51.368;6.730;2022-12-17T08:06:43;8.63;;;4.82;;
15614;SDS011;7907;51.368;6.730;2022-12-17T08:09:27;5.97;;;4.00;;
15614;SDS011;7907;51.368;6.730;2022-12-17T08:12:11;8.88;;;3.75;;
15614;SDS011;7907;51.368;6.730;2022-12-17T08:14:57;8.00;;;3.42;;
15614;SDS011;7907;51.368;6.730;2022-12-17T08:17:58;8.32;;;4.63;;
15614;SDS011;7907;51.368;6.730;2022-12-17T08:20:43;11.65;;;4.78;;
15614;SDS011;7907;51.368;6.730;2022-12-17T08:23:27;11.07;;;3.60;;
15614;SDS011;7907;51.368;6.730;2022-12-17T08:26:17;7.20;;;3.45;;
15614;SDS011;7907;51.368;6.730;2022-12-17T08:29:02;5.03;;;3.08;;
15614;SDS011;7907;51.368;6.730;2022-12-17T08:31:47;8.00;;;3.75;;
15614;SDS011;7907;51.368;6.730;2022-12-17T08:34:31;5.57;;;3.65;;
15614;SDS011;7907;51.368;6.730;2022-12-17T08:37:16;7.50;;;3.88;;
15614;SDS011;7907;51.368;6.730;2022-12-17T08:40:02;6.88;;;4.63;;
15614;SDS011;7907;51.368;6.730;2022-12-17T08:42:47;8.93;;;4.00;;
15614;SDS011;7907;51.368;6.730;2022-12-17T08:45:38;7.10;;;4.00;;
15614;SDS011;7907;51.368;6.730;2022-12-17T08:48:24;8.25;;;3.45;;
15614;SDS011;7907;51.368;6.730;2022-12-17T08:51:10;5.80;;;4.23;;
15614;SDS011;7907;51.368;6.730;2022-12-17T08:53:55;8.85;;;3.83;;
15614;SDS011;7907;51.368;6.730;2022-12-17T08:56:39;11.98;;;3.83;;
15614;SDS011;7907;51.368;6.730;2022-12-17T08:59:23;10.05;;;4.57;;
15614;SDS011;7907;51.368;6.730;2022-12-17T09:02:08;4.82;;;3.08;;
15614;SDS011;7907;51.368;6.730;2022-12-17T09:04:54;10.63;;;5.73;;
15614;SDS011;7907;51.368;6.730;2022-12-17T09:07:38;10.05;;;5.18;;
15614;SDS011;7907;51.368;6.730;2022-12-17T09:10:22;10.20;;;4.10;;
15614;SDS011;7907;51.368;6.730;2022-12-17T09:13:06;9.18;;;4.22;;
15614;SDS011;7907;51.368;6.730;2022-12-17T09:15:51;9.55;;;6.15;;
15614;SDS011;7907;51.368;6.730;2022-12-17T09:18:36;12.48;;;5.35;;
15614;SDS011;7907;51.368;6.730;2022-12-17T09:21:31;6.67;;;4.30;;
15614;SDS011;7907;51.368;6.730;2022-12-17T09:24:16;6.57;;;3.80;;
15614;SDS011;7907;51.368;6.730;2022-12-17T09:27:00;8.68;;;3.55;;
15614;SDS011;7907;51.368;6.730;2022-12-17T09:29:44;10.00;;;4.82;;
15614;SDS011;7907;51.368;6.730;2022-12-17T09:32:31;17.25;;;5.30;;
15614;SDS011;7907;51.368;6.730;2022-12-17T09:35:15;6.05;;;3.75;;
15614;SDS011;7907;51.368;6.730;2022-12-17T09:38:01;9.50;;;4.43;;
15614;SDS011;7907;51.368;6.730;2022-12-17T09:40:46;9.63;;;3.65;;
15614;SDS011;7907;51.368;6.730;2022-12-17T09:43:35;8.00;;;4.15;;
15614;SDS011;7907;51.368;6.730;2022-12-17T09:46:28;7.05;;;4.45;;
15614;SDS011;7907;51.368;6.730;2022-12-17T09:49:17;6.32;;;3.28;;
15614;SDS011;7907;51.368;6.730;2022-12-17T09:52:09;8.20;;;3.33;;
15614;SDS011;7907;51.368;6.730;2022-12-17T09:55:02;6.25;;;3.95;;
15614;SDS011;7907;51.368;6.730;2022-12-17T09:57:56;6.55;;;3.42;;
15614;SDS011;7907;51.368;6.730;2022-12-17T10:00:41;6.18;;;3.65;;
15614;SDS011;7907;51.368;6.730;2022-12-17T10:03:25;7.47;;;3.67;;
15614;SDS011;7907;51.368;6.730;2022-12-17T10:06:15;5.90;;;3.30;;
15614;SDS011;7907;51.368;6.730;2022-12-17T10:09:08;10.20;;;3.83;;
15614;SDS011;7907;51.368;6.730;2022-12-17T10:11:57;4.87;;;3.93;;
15614;SDS011;7907;51.368;6.730;2022-12-17T10:14:45;10.05;;;4.13;;
15614;SDS011;7907;51.368;6.730;2022-12-17T10:17:29;8.60;;;4.05;;
15614;SDS011;7907;51.368;6.730;2022-12-17T10:20:17;5.90;;;3.15;;
15614;SDS011;7907;51.368;6.730;2022-12-17T10:23:06;7.00;;;3.53;;
15614;SDS011;7907;51.368;6.730;2022-12-17T10:25:51;4.28;;;2.97;;
15614;SDS011;7907;51.368;6.730;2022-12-17T10:28:39;10.65;;;3.08;;
15614;SDS011;7907;51.368;6.730;2022-12-17T10:31:25;6.13;;;3.53;;
15614;SDS011;7907;51.368;6.730;2022-12-17T10:34:13;5.63;;;3.20;;
15614;SDS011;7907;51.368;6.730;2022-12-17T10:36:59;3.63;;;2.88;;
15614;SDS011;7907;51.368;6.730;2022-12-17T10:39:51;5.60;;;2.92;;
15614;SDS011;7907;51.368;6.730;2022-12-17T10:42:38;7.22;;;3.15;;
15614;SDS011;7907;51.368;6.730;2022-12-17T10:45:25;9.27;;;4.50;;
15614;SDS011;7907;51.368;6.730;2022-12-17T10:48:18;5.63;;;4.03;;
15614;SDS011;7907;51.368;6.730;2022-12-17T10:51:15;4.78;;;2.88;;
15614;SDS011;7907;51.368;6.730;2022-12-17T10:54:05;6.13;;;4.72;;
15614;SDS011;7907;51.368;6.730;2022-12-17T10:56:58;8.83;;;3.70;;
15614;SDS011;7907;51.368;6.730;2022-12-17T10:59:44;6.25;;;3.70;;
15614;SDS011;7907;51.368;6.730;2022-12-17T11:02:31;7.25;;;3.65;;
15614;SDS011;7907;51.368;6.730;2022-12-17T11:05:19;8.18;;;3.90;;
15614;SDS011;7907;51.368;6.730;2022-12-17T11:08:09;9.03;;;4.97;;
15614;SDS011;7907;51.368;6.730;2022-12-17T11:10:56;7.65;;;3.45;;
15614;SDS011;7907;51.368;6.730;2022-12-17T11:13:44;6.18;;;3.22;;
15614;SDS011;7907;51.368;6.730;2022-12-17T11:16:31;5.03;;;3.20;;
15614;SDS011;7907;51.368;6.730;2022-12-17T11:19:25;6.43;;;3.80;;
15614;SDS011;7907;51.368;6.730;2022-12-17T11:22:20;5.35;;;3.22;;
15614;SDS011;7907;51.368;6.730;2022-12-17T11:25:17;8.13;;;4.53;;
15614;SDS011;7907;51.368;6.730;2022-12-17T11:28:10;10.75;;;4.00;;
15614;SDS011;7907;51.368;6.730;2022-12-17T11:31:03;7.35;;;3.95;;
15614;SDS011;7907;51.368;6.730;2022-12-17T11:34:07;10.65;;;4.43;;
15614;SDS011;7907;51.368;6.730;2022-12-17T11:36:58;5.30;;;3.10;;
15614;SDS011;7907;51.368;6.730;2022-12-17T11:39:49;15.35;;;5.03;;
15614;SDS011;7907;51.368;6.730;2022-12-17T11:42:41;4.43;;;3.67;;
15614;SDS011;7907;51.368;6.730;2022-12-17T11:45:32;7.88;;;4.18;;
15614;SDS011;7907;51.368;6.730;2022-12-17T11:48:23;7.65;;;4.25;;
15614;SDS011;7907;51.368;6.730;2022-12-17T11:51:14;6.43;;;3.97;;
15614;SDS011;7907;51.368;6.730;2022-12-17T11:54:04;6.80;;;4.22;;
15614;SDS011;7907;51.368;6.730;2022-12-17T11:56:56;10.20;;;4.15;;
15614;SDS011;7907;51.368;6.730;2022-12-17T11:59:46;6.72;;;3.63;;
15614;SDS011;7907;51.368;6.730;2022-12-17T12:02:42;9.75;;;5.35;;
15614;SDS011;7907;51.368;6.730;2022-12-17T12:05:39;6.85;;;4.82;;
15614;SDS011;7907;51.368;6.730;2022-12-17T12:08:30;11.35;;;5.38;;
15614;SDS011;7907;51.368;6.730;2022-12-17T12:11:22;10.38;;;5.38;;
15614;SDS011;7907;51.368;6.730;2022-12-17T12:14:13;8.05;;;4.30;;
15614;SDS011;7907;51.368;6.730;2022-12-17T12:17:07;18.00;;;5.50;;
15614;SDS011;7907;51.368;6.730;2022-12-17T12:20:06;7.25;;;4.28;;
15614;SDS011;7907;51.368;6.730;2022-12-17T12:23:02;9.55;;;4.97;;
15614;SDS011;7907;51.368;6.730;2022-12-17T12:25:59;9.87;;;5.70;;
15614;SDS011;7907;51.368;6.730;2022-12-17T12:28:53;8.73;;;4.70;;
15614;SDS011;7907;51.368;6.730;2022-12-17T12:31:45;9.73;;;5.53;;
15614;SDS011;7907;51.368;6.730;2022-12-17T12:34:36;7.47;;;4.53;;
15614;SDS011;7907;51.368;6.730;2022-12-17T12:37:21;8.57;;;4.93;;
15614;SDS011;7907;51.368;6.730;2022-12-17T12:40:11;8.75;;;4.38;;
15614;SDS011;7907;51.368;6.730;2022-12-17T12:43:02;7.28;;;5.07;;
15614;SDS011;7907;51.368;6.730;2022-12-17T12:45:54;10.55;;;4.28;;
15614;SDS011;7907;51.368;6.730;2022-12-17T12:48:47;13.48;;;6.13;;
15614;SDS011;7907;51.368;6.730;2022-12-17T12:51:38;9.30;;;5.40;;
15614;SDS011;7907;51.368;6.730;2022-12-17T12:54:24;6.10;;;3.78;;
15614;SDS011;7907;51.368;6.730;2022-12-17T12:57:27;9.37;;;4.93;;
15614;SDS011;7907;51.368;6.730;2022-12-17T13:03:26;7.95;;;4.05;;
15614;SDS011;7907;51.368;6.730;2022-12-17T13:06:13;10.45;;;4.25;;
15614;SDS011;7907;51.368;6.730;2022-12-17T13:09:04;12.25;;;5.68;;
15614;SDS011;7907;51.368;6.730;2022-12-17T13:11:45;11.10;;;4.93;;
15614;SDS011;7907;51.368;6.730;2022-12-17T13:14:15;11.47;;;5.57;;
15614;SDS011;7907;51.368;6.730;2022-12-17T13:16:49;10.90;;;5.57;;
15614;SDS011;7907;51.368;6.730;2022-12-17T13:19:30;12.30;;;5.38;;
15614;SDS011;7907;51.368;6.730;2022-12-17T13:22:09;10.02;;;5.72;;
15614;SDS011;7907;51.368;6.730;2022-12-17T13:24:52;10.23;;;5.30;;
15614;SDS011;7907;51.368;6.730;2022-12-17T13:27:27;10.55;;;4.88;;
15614;SDS011;7907;51.368;6.730;2022-12-17T13:29:55;8.60;;;4.90;;
15614;SDS011;7907;51.368;6.730;2022-12-17T13:32:24;10.38;;;5.40;;
15614;SDS011;7907;51.368;6.730;2022-12-17T13:34:58;8.95;;;4.25;;
15614;SDS011;7907;51.368;6.730;2022-12-17T13:37:39;6.82;;;4.43;;
15614;SDS011;7907;51.368;6.730;2022-12-17T13:40:21;11.55;;;5.93;;
15614;SDS011;7907;51.368;6.730;2022-12-17T13:42:56;10.07;;;5.03;;
15614;SDS011;7907;51.368;6.730;2022-12-17T13:45:24;7.03;;;4.38;;
15614;SDS011;7907;51.368;6.730;2022-12-17T13:47:52;12.20;;;6.15;;
15614;SDS011;7907;51.368;6.730;2022-12-17T13:50:21;10.17;;;5.53;;
15614;SDS011;7907;51.368;6.730;2022-12-17T13:52:50;7.35;;;4.72;;
15614;SDS011;7907;51.368;6.730;2022-12-17T13:55:18;5.60;;;4.25;;
15614;SDS011;7907;51.368;6.730;2022-12-17T13:57:49;7.93;;;4.82;;
15614;SDS011;7907;51.368;6.730;2022-12-17T14:00:20;11.10;;;5.20;;
15614;SDS011;7907;51.368;6.730;2022-12-17T14:02:49;8.55;;;5.53;;
15614;SDS011;7907;51.368;6.730;2022-12-17T14:05:26;11.80;;;4.88;;
15614;SDS011;7907;51.368;6.730;2022-12-17T14:07:58;6.80;;;4.43;;
15614;SDS011;7907;51.368;6.730;2022-12-17T14:10:28;9.38;;;5.53;;
15614;SDS011;7907;51.368;6.730;2022-12-17T14:13:00;5.80;;;5.20;;
15614;SDS011;7907;51.368;6.730;2022-12-17T14:15:30;9.53;;;4.80;;
15614;SDS011;7907;51.368;6.730;2022-12-17T14:17:57;12.17;;;5.27;;
15614;SDS011;7907;51.368;6.730;2022-12-17T14:20:27;9.57;;;6.15;;
15614;SDS011;7907;51.368;6.730;2022-12-17T14:22:58;9.43;;;5.80;;
15614;SDS011;7907;51.368;6.730;2022-12-17T14:25:29;7.35;;;3.83;;
15614;SDS011;7907;51.368;6.730;2022-12-17T14:28:00;7.13;;;4.00;;
15614;SDS011;7907;51.368;6.730;2022-12-17T14:30:32;6.53;;;4.15;;
15614;SDS011;7907;51.368;6.730;2022-12-17T14:33:03;8.15;;;5.50;;
15614;SDS011;7907;51.368;6.730;2022-12-17T14:35:49;6.82;;;4.30;;
15614;SDS011;7907;51.368;6.730;2022-12-17T14:38:18;10.38;;;5.25;;
15614;SDS011;7907;51.368;6.730;2022-12-17T14:40:47;10.68;;;4.18;;
15614;SDS011;7907;51.368;6.730;2022-12-17T14:43:14;7.68;;;4.32;;
15614;SDS011;7907;51.368;6.730;2022-12-17T14:45:47;5.93;;;4.05;;
15614;SDS011;7907;51.368;6.730;2022-12-17T14:48:30;9.25;;;4.53;;
15614;SDS011;7907;51.368;6.730;2022-12-17T14:51:19;9.15;;;5.07;;
15614;SDS011;7907;51.368;6.730;2022-12-17T14:53:47;11.88;;;4.57;;
15614;SDS011;7907;51.368;6.730;2022-12-17T14:56:21;10.13;;;5.38;;
15614;SDS011;7907;51.368;6.730;2022-12-17T14:58:49;7.57;;;5.28;;
15614;SDS011;7907;51.368;6.730;2022-12-17T15:01:16;6.80;;;4.15;;
15614;SDS011;7907;51.368;6.730;2022-12-17T15:03:44;9.57;;;4.38;;
15614;SDS011;7907;51.368;6.730;2022-12-17T15:06:12;6.63;;;4.37;;
15614;SDS011;7907;51.368;6.730;2022-12-17T15:08:43;12.95;;;4.82;;
15614;SDS011;7907;51.368;6.730;2022-12-17T15:11:11;7.53;;;4.85;;
15614;SDS011;7907;51.368;6.730;2022-12-17T15:13:42;7.10;;;3.95;;
15614;SDS011;7907;51.368;6.730;2022-12-17T15:16:09;6.70;;;4.57;;
15614;SDS011;7907;51.368;6.730;2022-12-17T15:18:37;11.15;;;4.78;;
15614;SDS011;7907;51.368;6.730;2022-12-17T15:21:04;9.10;;;4.83;;
15614;SDS011;7907;51.368;6.730;2022-12-17T15:23:32;9.87;;;5.17;;
15614;SDS011;7907;51.368;6.730;2022-12-17T15:25:59;6.97;;;4.68;;
15614;SDS011;7907;51.368;6.730;2022-12-17T15:28:26;5.63;;;4.18;;
15614;SDS011;7907;51.368;6.730;2022-12-17T15:30:54;10.73;;;4.45;;
15614;SDS011;7907;51.368;6.730;2022-12-17T15:33:22;9.35;;;5.60;;
15614;SDS011;7907;51.368;6.730;2022-12-17T15:35:49;9.13;;;4.82;;
15614;SDS011;7907;51.368;6.730;2022-12-17T15:38:16;13.32;;;5.22;;
15614;SDS011;7907;51.368;6.730;2022-12-17T15:40:43;9.43;;;5.22;;
15614;SDS011;7907;51.368;6.730;2022-12-17T15:43:11;10.20;;;4.95;;
15614;SDS011;7907;51.368;6.730;2022-12-17T15:45:38;8.50;;;5.55;;
15614;SDS011;7907;51.368;6.730;2022-12-17T15:48:07;6.63;;;4.68;;
15614;SDS011;7907;51.368;6.730;2022-12-17T15:50:35;6.45;;;4.40;;
15614;SDS011;7907;51.368;6.730;2022-12-17T15:53:02;8.80;;;4.97;;
15614;SDS011;7907;51.368;6.730;2022-12-17T15:55:30;7.38;;;4.07;;
15614;SDS011;7907;51.368;6.730;2022-12-17T15:57:57;8.63;;;5.45;;
15614;SDS011;7907;51.368;6.730;2022-12-17T16:00:24;9.23;;;5.30;;
15614;SDS011;7907;51.368;6.730;2022-12-17T16:02:51;9.30;;;4.95;;
15614;SDS011;7907;51.368;6.730;2022-12-17T16:05:20;4.80;;;3.70;;
15614;SDS011;7907;51.368;6.730;2022-12-17T16:07:47;7.90;;;4.40;;
15614;SDS011;7907;51.368;6.730;2022-12-17T16:10:14;8.75;;;4.78;;
15614;SDS011;7907;51.368;6.730;2022-12-17T16:12:42;8.18;;;5.32;;
15614;SDS011;7907;51.368;6.730;2022-12-17T16:15:10;9.35;;;6.05;;
15614;SDS011;7907;51.368;6.730;2022-12-17T16:17:38;15.98;;;7.80;;
15614;SDS011;7907;51.368;6.730;2022-12-17T16:20:05;15.88;;;8.18;;
15614;SDS011;7907;51.368;6.730;2022-12-17T16:22:34;17.15;;;8.68;;
15614;SDS011;7907;51.368;6.730;2022-12-17T16:25:02;10.48;;;6.97;;
15614;SDS011;7907;51.368;6.730;2022-12-17T16:27:30;7.77;;;5.17;;
15614;SDS011;7907;51.368;6.730;2022-12-17T16:29:57;13.13;;;5.18;;
15614;SDS011;7907;51.368;6.730;2022-12-17T16:32:24;8.63;;;4.53;;
15614;SDS011;7907;51.368;6.730;2022-12-17T16:34:51;9.85;;;6.07;;